Time;durP1;ratioP1;P1;durP2;ratioP2;P2;SDS_P1;SDS_P2;PMS_P1;PMS_P2;Temp;Humidity;BMP_temperature;BMP_pressure;BME280_temperature;BME280_humidity;BME280_pressure;Samples;Min_cycle;Max_cycle;Signal;HPM_P1;HPM_P2
2021/05/28 00:01:27;;;;;;;16.50;13.47;;;;;;;17.51;100.00;101055.81;5072633;28;20646;-79
2021/05/28 00:03:53;;;;;;;17.07;14.43;;;;;;;17.55;100.00;101049.25;5053969;28;20411;-80
2021/05/28 00:06:18;;;;;;;17.17;14.07;;;;;;;17.58;100.00;101036.50;5051930;28;20408;-79
2021/05/28 00:08:44;;;;;;;19.50;15.10;;;;;;;17.54;100.00;101031.63;5052246;28;20165;-78
2021/05/28 00:11:12;;;;;;;18.30;14.73;;;;;;;17.46;100.00;101029.69;5051783;28;20246;-78
2021/05/28 00:13:40;;;;;;;16.60;13.07;;;;;;;17.40;100.00;101031.06;5052174;28;20158;-80
2021/05/28 00:16:09;;;;;;;17.40;13.50;;;;;;;17.42;100.00;101039.72;5070636;28;20406;-78
2021/05/28 00:18:37;;;;;;;18.10;13.37;;;;;;;17.40;100.00;101024.91;5072468;28;20410;-79
2021/05/28 00:21:04;;;;;;;17.20;12.70;;;;;;;17.39;100.00;101028.56;5071856;28;20390;-77
2021/05/28 00:23:29;;;;;;;14.97;12.77;;;;;;;17.35;100.00;101025.31;5070725;28;20414;-79
2021/05/28 00:26:03;;;;;;;17.43;13.50;;;;;;;17.31;100.00;101034.56;5058866;28;20407;-74
2021/05/28 00:28:41;;;;;;;14.47;12.87;;;;;;;17.19;100.00;101023.22;5051806;28;20164;-75
2021/05/28 00:31:07;;;;;;;16.07;12.23;;;;;;;17.05;100.00;101023.59;5051697;28;20546;-74
2021/05/28 00:33:33;;;;;;;15.23;12.13;;;;;;;17.03;100.00;101024.72;5052093;28;20494;-73
2021/05/28 00:35:58;;;;;;;13.90;11.93;;;;;;;17.04;100.00;101021.94;5051792;28;20222;-73
2021/05/28 00:38:24;;;;;;;16.80;13.63;;;;;;;17.02;100.00;101015.09;5070141;28;20176;-81
2021/05/28 00:40:50;;;;;;;16.53;12.77;;;;;;;17.01;100.00;101016.06;5071345;28;20298;-77
2021/05/28 00:43:16;;;;;;;14.80;13.17;;;;;;;16.88;100.00;101013.66;5071406;28;20180;-81
2021/05/28 00:45:42;;;;;;;18.43;13.73;;;;;;;16.92;100.00;101013.25;5066269;28;20534;-78
2021/05/28 00:48:08;;;;;;;19.10;13.33;;;;;;;17.03;100.00;101008.81;5050468;28;20458;-80
2021/05/28 00:50:33;;;;;;;15.63;12.50;;;;;;;17.03;100.00;101006.16;5050980;28;20185;-81
2021/05/28 00:53:00;;;;;;;17.60;12.77;;;;;;;16.91;100.00;101010.72;5051396;28;20241;-79
2021/05/28 00:55:26;;;;;;;15.37;12.33;;;;;;;16.88;100.00;101011.00;5052555;28;20523;-80
2021/05/28 00:57:54;;;;;;;17.23;13.80;;;;;;;16.78;100.00;101007.50;5052357;28;20412;-80
2021/05/28 01:00:21;;;;;;;19.73;13.33;;;;;;;16.78;100.00;101011.00;5056119;28;20522;-79
2021/05/28 01:02:47;;;;;;;17.20;12.70;;;;;;;16.81;100.00;101004.56;5070382;28;20816;-79
2021/05/28 01:05:13;;;;;;;15.63;13.33;;;;;;;16.73;100.00;101004.41;5071539;28;20464;-80
2021/05/28 01:07:38;;;;;;;16.70;12.27;;;;;;;16.72;100.00;101000.91;5071240;28;20156;-80
2021/05/28 01:10:04;;;;;;;15.17;13.40;;;;;;;16.69;100.00;101003.81;5071164;28;20465;-82
2021/05/28 01:12:30;;;;;;;13.87;12.43;;;;;;;16.61;100.00;100996.50;5071416;28;20161;-80
2021/05/28 01:14:56;;;;;;;17.60;14.00;;;;;;;16.61;100.00;100996.50;5052975;28;20443;-78
2021/05/28 01:17:21;;;;;;;17.60;12.87;;;;;;;16.51;100.00;101006.25;5069522;28;20583;-81
2021/05/28 01:19:48;;;;;;;14.97;12.70;;;;;;;16.48;100.00;101001.25;5071191;28;20256;-79
2021/05/28 01:22:18;;;;;;;15.00;12.87;;;;;;;16.44;100.00;101001.63;5070024;28;20187;-80
2021/05/28 01:24:44;;;;;;;19.20;13.20;;;;;;;16.40;100.00;101001.06;5071125;28;20789;-78
2021/05/28 01:27:10;;;;;;;18.80;14.10;;;;;;;16.36;100.00;101002.28;5055163;28;20971;-77
2021/05/28 01:29:36;;;;;;;17.00;15.03;;;;;;;16.43;100.00;100994.66;5050960;28;20162;-79
2021/05/28 01:32:02;;;;;;;29.03;11.40;;;;;;;16.31;100.00;100993.88;5051257;28;20458;-79
2021/05/28 01:34:28;;;;;;;15.17;13.10;;;;;;;16.34;100.00;100999.78;5051131;28;20188;-78
2021/05/28 01:36:53;;;;;;;19.07;13.33;;;;;;;16.32;100.00;100996.44;5062259;28;20165;-77
2021/05/28 01:39:19;;;;;;;16.70;12.70;;;;;;;16.35;100.00;100996.16;5071190;28;20168;-78
2021/05/28 01:41:44;;;;;;;19.07;13.43;;;;;;;16.25;100.00;100989.16;5065264;28;20318;-79
2021/05/28 01:44:11;;;;;;;22.07;14.00;;;;;;;16.24;100.00;100995.38;5051303;28;20765;-78
2021/05/28 01:46:37;;;;;;;16.60;13.10;;;;;;;16.14;100.00;100995.34;5051314;28;20185;-79
2021/05/28 01:49:03;;;;;;;17.90;13.90;;;;;;;16.15;100.00;100990.88;5056558;28;20419;-79
2021/05/28 01:51:33;;;;;;;16.70;12.07;;;;;;;16.17;100.00;100991.59;5074507;28;20192;-79
2021/05/28 01:53:59;;;;;;;18.00;13.07;;;;;;;16.14;100.00;100991.88;5074447;28;20450;-78
2021/05/28 01:56:25;;;;;;;19.50;13.93;;;;;;;16.12;100.00;100989.34;5074950;28;20787;-78
2021/05/28 01:58:51;;;;;;;17.27;13.87;;;;;;;16.10;100.00;100991.31;5071554;28;20873;-80
2021/05/28 02:01:16;;;;;;;20.83;14.10;;;;;;;16.08;100.00;100985.28;5072655;28;20429;-80
2021/05/28 02:03:42;;;;;;;21.90;14.00;;;;;;;16.12;100.00;100993.81;5059333;28;20786;-79
2021/05/28 02:06:07;;;;;;;17.83;14.33;;;;;;;16.06;100.00;100995.19;5055909;28;20532;-79
2021/05/28 02:08:33;;;;;;;16.90;13.70;;;;;;;16.14;100.00;100992.69;5074124;28;20550;-77
2021/05/28 02:10:59;;;;;;;16.33;12.90;;;;;;;16.14;100.00;100994.50;5067339;28;20275;-79
2021/05/28 02:13:24;;;;;;;19.60;14.30;;;;;;;16.08;100.00;100987.91;5074053;28;20184;-79
2021/05/28 02:15:50;;;;;;;15.30;12.87;;;;;;;16.13;100.00;100983.06;5073706;28;20240;-80
2021/05/28 02:18:16;;;;;;;19.13;12.17;;;;;;;16.18;100.00;100977.38;5074449;28;20157;-80
2021/05/28 02:20:41;;;;;;;17.07;13.70;;;;;;;16.15;100.00;100980.28;5073377;28;20168;-80
2021/05/28 02:23:07;;;;;;;15.80;12.87;;;;;;;16.08;100.00;100987.91;5074391;28;20165;-80
2021/05/28 02:25:32;;;;;;;16.03;12.20;;;;;;;16.13;100.00;100990.19;5073481;28;20666;-79
2021/05/28 02:27:58;;;;;;;19.80;13.73;;;;;;;16.09;100.00;100984.28;5071692;28;20161;-77
2021/05/28 02:30:23;;;;;;;18.47;13.63;;;;;;;16.05;100.00;100982.91;5070173;28;20212;-77
2021/05/28 02:32:49;;;;;;;17.13;12.70;;;;;;;16.03;100.00;100991.00;5067514;28;20165;-78
2021/05/28 02:35:15;;;;;;;17.40;12.70;;;;;;;16.05;100.00;100988.19;5062888;28;20157;-76
2021/05/28 02:37:41;;;;;;;17.23;12.60;;;;;;;16.03;100.00;100990.16;5060827;28;20173;-77
2021/05/28 02:40:08;;;;;;;19.97;14.10;;;;;;;16.06;100.00;100985.41;5072438;28;20615;-76
2021/05/28 02:42:35;;;;;;;15.30;12.87;;;;;;;16.14;100.00;100982.09;5054622;28;20184;-78
2021/05/28 02:45:00;;;;;;;17.77;13.90;;;;;;;16.19;100.00;100976.41;5066429;28;20494;-77
2021/05/28 02:47:26;;;;;;;17.47;12.50;;;;;;;16.11;100.00;100977.06;5053672;28;20806;-80
2021/05/28 02:49:52;;;;;;;17.40;13.20;;;;;;;16.06;100.00;100974.81;5069431;28;20196;-82
2021/05/28 02:52:17;;;;;;;16.33;12.70;;;;;;;16.06;100.00;100984.56;5073700;28;20888;-77
2021/05/28 02:54:44;;;;;;;18.13;13.17;;;;;;;16.11;100.00;100976.22;5073381;28;20682;-77
2021/05/28 02:57:10;;;;;;;17.77;12.97;;;;;;;16.16;100.00;100976.66;5064396;28;20611;-79
2021/05/28 02:59:35;;;;;;;16.77;14.30;;;;;;;16.15;100.00;100967.03;5068787;28;20402;-80
2021/05/28 03:02:01;;;;;;;15.67;12.43;;;;;;;16.16;100.00;100961.59;5070892;28;20499;-79
2021/05/28 03:04:29;;;;;;;20.53;13.33;;;;;;;16.15;100.00;100964.38;5053475;28;20539;-80
2021/05/28 03:06:55;;;;;;;19.77;14.17;;;;;;;16.22;100.00;100969.00;5053309;28;20392;-80
2021/05/28 03:09:20;;;;;;;17.40;12.93;;;;;;;16.24;100.00;100966.22;5071475;28;20414;-79
2021/05/28 03:11:46;;;;;;;18.93;13.10;;;;;;;16.33;100.00;100968.94;5073929;28;20847;-78
2021/05/28 03:14:12;;;;;;;16.47;12.67;;;;;;;16.41;100.00;100960.31;5072926;28;20192;-79
2021/05/28 03:16:37;;;;;;;17.00;12.00;;;;;;;16.43;100.00;100966.31;5073988;28;20187;-82
2021/05/28 03:19:14;;;;;;;16.47;13.73;;;;;;;16.47;100.00;100967.69;5073041;28;20157;-79
2021/05/28 03:22:32;;;;;;;16.33;12.50;;;;;;;16.47;100.00;100970.34;5063411;28;20169;-76
2021/05/28 03:24:25;;;;;;;13.93;11.90;;;;;;;16.49;100.00;100965.78;5052763;28;20410;-75
2021/05/28 03:26:50;;;;;;;15.27;13.67;;;;;;;16.46;100.00;100959.88;5064605;28;20413;-76
2021/05/28 03:29:16;;;;;;;16.13;12.20;;;;;;;16.52;100.00;100959.34;5055466;28;20165;-78
2021/05/28 03:31:41;;;;;;;15.13;12.33;;;;;;;16.66;100.00;100958.97;5070724;28;20583;-77
2021/05/28 03:34:07;;;;;;;18.43;13.40;;;;;;;16.73;100.00;100957.47;5062292;28;20164;-73
2021/05/28 03:36:32;;;;;;;15.73;12.30;;;;;;;16.76;100.00;100973.13;5058461;28;20623;-77
2021/05/28 03:38:58;;;;;;;17.30;12.63;;;;;;;16.87;100.00;100972.19;5072171;28;20259;-78
2021/05/28 03:41:23;;;;;;;15.27;11.20;;;;;;;16.83;100.00;100962.81;5065071;28;20208;-76
2021/05/28 03:43:49;;;;;;;17.40;11.93;;;;;;;16.78;100.00;100963.22;5071986;28;20222;-79
2021/05/28 03:46:14;;;;;;;19.47;12.30;;;;;;;16.85;100.00;100966.16;5058334;28;20630;-80
2021/05/28 03:48:40;;;;;;;14.57;11.07;;;;;;;16.88;100.00;100969.38;5060561;28;20165;-79
2021/05/28 03:51:05;;;;;;;13.90;10.40;;;;;;;16.91;100.00;100962.94;5056906;28;20196;-80
2021/05/28 03:53:31;;;;;;;14.40;11.20;;;;;;;16.97;100.00;100969.53;5059558;28;20164;-81
2021/05/28 03:55:57;;;;;;;13.73;11.13;;;;;;;16.87;100.00;100969.53;5060775;28;20168;-81
2021/05/28 03:58:23;;;;;;;14.57;12.00;;;;;;;17.00;100.00;100972.72;5054697;28;20161;-78
2021/05/28 04:00:48;;;;;;;14.30;11.20;;;;;;;17.08;100.00;100974.72;5066336;28;20807;-80
2021/05/28 04:03:14;;;;;;;18.20;11.40;;;;;;;17.05;100.00;100967.84;5071722;28;20180;-72
2021/05/28 04:05:39;;;;;;;11.90;10.53;;;;;;;17.04;100.00;100968.84;5068918;28;20207;-74
2021/05/28 04:08:05;;;;;;;13.87;11.70;;;;;;;17.07;100.00;100965.06;5065331;28;20206;-72
2021/05/28 04:10:31;;;;;;;17.10;13.23;;;;;;;17.04;100.00;100966.19;5070796;28;20215;-73
2021/05/28 04:12:56;;;;;;;13.20;11.20;;;;;;;17.03;100.00;100968.97;5070655;28;20513;-75
2021/05/28 04:15:22;;;;;;;14.10;11.60;;;;;;;17.06;100.00;100969.53;5070284;28;20172;-73
2021/05/28 04:17:47;;;;;;;18.43;12.87;;;;;;;17.08;100.00;100974.72;5071213;28;20160;-79
2021/05/28 04:20:13;;;;;;;15.47;12.70;;;;;;;17.31;100.00;100972.63;5071068;28;20192;-76
2021/05/28 04:22:39;;;;;;;15.03;11.63;;;;;;;17.47;100.00;100967.59;5058863;28;20153;-76
2021/05/28 04:25:06;;;;;;;15.30;11.83;;;;;;;17.66;100.00;100969.38;5051863;28;20411;-73
2021/05/28 04:27:31;;;;;;;12.97;11.40;;;;;;;17.84;100.00;100959.72;5051466;28;20177;-73
2021/05/28 04:29:57;;;;;;;16.00;10.60;;;;;;;18.02;100.00;100952.66;5051258;28;20493;-74
2021/05/28 04:32:22;;;;;;;15.47;11.53;;;;;;;18.13;100.00;100950.78;5069442;28;20167;-75
2021/05/28 04:34:47;;;;;;;14.50;9.40;;;;;;;18.17;100.00;100949.53;5071668;28;20209;-74
2021/05/28 04:37:13;;;;;;;12.43;9.97;;;;;;;18.17;100.00;100950.34;5071962;28;20198;-75
2021/05/28 04:39:38;;;;;;;15.83;9.70;;;;;;;18.18;100.00;100952.03;5071275;28;20584;-75
2021/05/28 04:42:04;;;;;;;12.47;10.57;;;;;;;18.22;100.00;100958.75;5071480;28;20182;-74
2021/05/28 04:44:30;;;;;;;17.57;11.50;;;;;;;18.17;100.00;100957.50;5071686;28;20168;-76
2021/05/28 04:46:56;;;;;;;13.53;10.60;;;;;;;18.29;100.00;100951.03;5072450;28;20266;-76
2021/05/28 04:49:23;;;;;;;12.77;10.37;;;;;;;18.34;100.00;100962.03;5072431;28;20200;-80
2021/05/28 04:51:49;;;;;;;13.93;9.77;;;;;;;18.28;100.00;100955.47;5070950;28;20511;-75
2021/05/28 04:54:15;;;;;;;14.20;11.07;;;;;;;18.27;100.00;100947.66;5071072;28;20486;-77
2021/05/28 04:56:41;;;;;;;14.03;10.17;;;;;;;18.32;100.00;100956.03;5071042;28;20486;-76
2021/05/28 04:59:06;;;;;;;14.80;9.97;;;;;;;18.33;100.00;100957.72;5069794;28;20229;-77
2021/05/28 05:01:32;;;;;;;19.77;10.80;;;;;;;18.33;100.00;100940.91;5071478;28;20176;-75
2021/05/28 05:03:57;;;;;;;11.53;9.60;;;;;;;18.35;100.00;100947.75;5071285;28;20165;-74
2021/05/28 05:06:23;;;;;;;16.10;9.90;;;;;;;18.51;100.00;100945.31;5070270;28;20608;-75
2021/05/28 05:08:48;;;;;;;13.37;9.83;;;;;;;18.70;100.00;100943.53;5072325;28;20225;-79
2021/05/28 05:11:14;;;;;;;20.07;9.73;;;;;;;18.73;100.00;100941.38;5074769;28;20219;-75
2021/05/28 05:13:40;;;;;;;13.77;9.63;;;;;;;18.79;100.00;100945.28;5072405;28;20274;-77
2021/05/28 05:16:05;;;;;;;14.53;10.60;;;;;;;18.88;100.00;100944.38;5074610;28;20879;-76
2021/05/28 05:18:31;;;;;;;12.70;10.53;;;;;;;18.93;100.00;100941.28;5073393;28;20171;-81
2021/05/28 05:20:56;;;;;;;13.20;10.10;;;;;;;19.03;100.00;100942.84;5074523;28;20192;-76
2021/05/28 05:23:22;;;;;;;24.03;10.00;;;;;;;19.29;100.00;100944.75;5072295;28;20168;-86
2021/05/28 05:25:47;;;;;;;13.20;9.37;;;;;;;19.32;100.00;100939.13;5075275;28;20615;-90
2021/05/28 05:28:13;;;;;;;16.43;9.97;;;;;;;19.46;100.00;100929.75;5076196;28;20631;-82
2021/05/28 05:30:41;;;;;;;10.90;8.97;;;;;;;19.60;100.00;100931.88;5081918;28;20203;-80
2021/05/28 05:33:07;;;;;;;18.13;9.37;;;;;;;19.74;100.00;100925.13;5078444;28;20168;-81
2021/05/28 05:35:33;;;;;;;12.87;9.43;;;;;;;19.77;100.00;100930.13;5078348;28;20387;-92
2021/05/28 05:37:59;;;;;;;18.43;10.03;;;;;;;19.82;100.00;100931.34;5077026;28;20168;-85
2021/05/28 05:40:25;;;;;;;15.17;9.70;;;;;;;19.87;100.00;100931.69;5076856;28;20453;-77
2021/05/28 05:42:51;;;;;;;11.73;8.50;;;;;;;20.00;100.00;100931.28;5075556;28;20461;-76
2021/05/28 05:45:16;;;;;;;14.07;9.50;;;;;;;20.09;100.00;100927.63;5076512;28;20257;-77
2021/05/28 05:47:43;;;;;;;11.20;9.07;;;;;;;20.21;100.00;100926.38;5075016;28;20206;-74
2021/05/28 05:50:09;;;;;;;13.67;8.77;;;;;;;20.48;100.00;100928.00;5075536;28;20882;-75
2021/05/28 05:52:35;;;;;;;11.30;8.20;;;;;;;20.62;100.00;100921.19;5075164;28;20403;-82
2021/05/28 05:55:01;;;;;;;13.10;8.30;;;;;;;20.48;100.00;100929.84;5075155;28;20498;-88
2021/05/28 05:57:26;;;;;;;14.57;8.27;;;;;;;20.39;100.00;100928.94;5077837;28;20230;-77
2021/05/28 05:59:52;;;;;;;13.00;8.13;;;;;;;20.44;100.00;100925.81;5081045;28;20587;-90
2021/05/28 06:02:19;;;;;;;12.43;8.90;;;;;;;20.36;100.00;100921.25;5081552;28;20161;-90
2021/05/28 06:04:44;;;;;;;13.13;9.93;;;;;;;20.15;100.00;100926.16;5082649;28;20168;-77
2021/05/28 06:07:10;;;;;;;12.80;10.13;;;;;;;20.19;100.00;100930.22;5080112;28;20752;-93
2021/05/28 06:09:36;;;;;;;20.47;10.07;;;;;;;20.38;100.00;100931.78;5077935;28;20195;-78
2021/05/28 06:12:01;;;;;;;11.17;9.00;;;;;;;20.52;100.00;100931.19;5077303;28;20550;-90
2021/05/28 06:14:27;;;;;;;9.97;7.50;;;;;;;20.61;100.00;100932.88;5078017;28;20235;-81
2021/05/28 06:16:53;;;;;;;11.10;8.30;;;;;;;20.61;100.00;100927.53;5076827;28;20168;-74
2021/05/28 06:19:19;;;;;;;11.00;8.53;;;;;;;20.66;100.00;100927.88;5078925;28;20165;-81
2021/05/28 06:21:44;;;;;;;15.00;9.50;;;;;;;20.73;100.00;100925.41;5078641;28;20167;-94
2021/05/28 06:24:10;;;;;;;15.10;9.17;;;;;;;20.72;100.00;100913.88;5079097;28;20423;-82
2021/05/28 06:26:36;;;;;;;12.00;8.40;;;;;;;20.74;100.00;100924.41;5076406;28;20157;-86
2021/05/28 06:29:03;;;;;;;12.17;9.20;;;;;;;20.80;100.00;100920.25;5076551;28;20516;-85
2021/05/28 06:31:32;;;;;;;11.50;8.53;;;;;;;20.75;100.00;100915.38;5074592;28;20532;-88
2021/05/28 06:33:57;;;;;;;11.93;8.40;;;;;;;20.93;100.00;100917.91;5076862;28;20391;-81
2021/05/28 06:36:23;;;;;;;15.47;9.23;;;;;;;21.13;100.00;100921.09;5075619;28;20419;-93
2021/05/28 06:38:48;;;;;;;14.67;9.10;;;;;;;21.64;100.00;100921.78;5079977;28;20191;-89
2021/05/28 06:41:14;;;;;;;13.53;8.77;;;;;;;21.60;100.00;100915.91;5078402;28;20258;-88
2021/05/28 06:43:39;;;;;;;12.00;9.23;;;;;;;21.57;100.00;100917.09;5075848;28;20176;-83
2021/05/28 06:46:05;;;;;;;14.93;9.67;;;;;;;21.57;100.00;100914.41;5075637;28;20169;-81
2021/05/28 06:48:30;;;;;;;8.47;6.80;;;;;;;21.64;100.00;100909.22;5075105;28;20597;-89
2021/05/28 06:50:56;;;;;;;9.53;6.20;;;;;;;21.94;100.00;100899.63;5076117;28;20253;-85
2021/05/28 06:53:22;;;;;;;10.23;7.03;;;;;;;22.21;100.00;100894.84;5074836;28;20221;-88
2021/05/28 06:55:47;;;;;;;10.93;7.10;;;;;;;22.35;100.00;100896.78;5073548;28;20189;-78
2021/05/28 06:58:13;;;;;;;11.27;6.47;;;;;;;22.40;100.00;100892.59;5073907;28;20262;-75
2021/05/28 07:00:39;;;;;;;15.43;7.33;;;;;;;22.42;100.00;100895.06;5072151;28;20218;-75
2021/05/28 07:03:04;;;;;;;11.07;6.33;;;;;;;22.55;100.00;100897.19;5073009;28;20165;-74
2021/05/28 07:05:30;;;;;;;9.43;5.90;;;;;;;22.69;100.00;100891.91;5072993;28;20164;-76
2021/05/28 07:07:57;;;;;;;11.33;5.03;;;;;;;22.74;100.00;100888.69;5072938;28;20157;-75
2021/05/28 07:10:23;;;;;;;10.20;4.60;;;;;;;22.77;100.00;100887.50;5072735;28;20204;-75
2021/05/28 07:12:49;;;;;;;7.60;3.90;;;;;;;22.85;100.00;100891.00;5072948;28;20387;-74
2021/05/28 07:15:16;;;;;;;11.13;4.00;;;;;;;22.81;100.00;100886.94;5073352;28;20399;-85
2021/05/28 07:17:42;;;;;;;8.40;4.33;;;;;;;22.80;100.00;100889.81;5072948;28;20481;-75
2021/05/28 07:20:08;;;;;;;10.90;3.90;;;;;;;22.86;100.00;100881.09;5073026;28;20391;-75
2021/05/28 07:22:35;;;;;;;18.17;12.50;;;;;;;22.97;100.00;100878.84;5073321;28;20823;-75
2021/05/28 07:25:01;;;;;;;10.27;5.93;;;;;;;23.05;100.00;100885.13;5075062;28;20398;-80
2021/05/28 07:27:27;;;;;;;5.90;3.80;;;;;;;23.31;100.00;100879.38;5074995;28;20388;-75
2021/05/28 07:29:54;;;;;;;10.40;6.13;;;;;;;23.43;100.00;100868.03;5077978;28;20947;-80
2021/05/28 07:32:19;;;;;;;7.80;3.80;;;;;;;23.43;100.00;100868.03;5077681;28;20164;-76
2021/05/28 07:34:45;;;;;;;4.93;3.40;;;;;;;23.36;100.00;100866.28;5076412;28;20923;-74
2021/05/28 07:37:10;;;;;;;3.90;3.30;;;;;;;23.32;100.00;100864.94;5078829;28;20741;-77
2021/05/28 07:39:36;;;;;;;8.77;4.17;;;;;;;23.29;100.00;100868.84;5073074;28;20212;-75
2021/05/28 07:42:04;;;;;;;7.83;4.30;;;;;;;23.46;100.00;100861.47;5073710;28;20176;-74
2021/05/28 07:44:30;;;;;;;11.37;4.33;;;;;;;23.64;100.00;100853.06;5074420;28;20208;-76
2021/05/28 07:46:56;;;;;;;8.60;3.97;;;;;;;23.78;100.00;100849.56;5071764;28;20446;-76
2021/05/28 07:49:22;;;;;;;6.47;3.63;;;;;;;23.85;100.00;100855.03;5072094;28;20263;-74
2021/05/28 07:51:47;;;;;;;5.13;2.90;;;;;;;23.80;100.00;100858.25;5072299;28;20453;-75
2021/05/28 07:54:13;;;;;;;5.13;3.40;;;;;;;23.47;100.00;100858.59;5075351;28;20183;-76
2021/05/28 07:56:39;;;;;;;11.60;3.73;;;;;;;23.50;100.00;100860.06;5079413;28;20188;-75
2021/05/28 07:59:06;;;;;;;6.40;3.73;;;;;;;23.47;100.00;100863.94;5072110;28;20164;-74
2021/05/28 08:01:32;;;;;;;6.57;3.07;;;;;;;23.71;100.00;100860.19;5080323;28;20769;-75
2021/05/28 08:03:58;;;;;;;5.17;3.03;;;;;;;23.77;100.00;100855.94;5079490;28;20512;-84
2021/05/28 08:06:26;;;;;;;7.27;3.50;;;;;;;23.80;100.00;100858.25;5074904;28;20260;-76
2021/05/28 08:08:53;;;;;;;5.40;3.70;;;;;;;23.80;100.00;100859.13;5075008;28;20908;-78
2021/05/28 08:11:19;;;;;;;8.80;3.63;;;;;;;23.84;100.00;100853.34;5073875;28;20454;-76
2021/05/28 08:13:45;;;;;;;6.80;3.90;;;;;;;23.92;100.00;100856.78;5073427;28;20399;-75
2021/05/28 08:16:11;;;;;;;7.23;3.63;;;;;;;24.01;100.00;100847.59;5072257;28;20255;-77
2021/05/28 08:18:37;;;;;;;7.27;3.60;;;;;;;24.07;100.00;100846.00;5071924;28;20954;-76
2021/05/28 08:21:04;;;;;;;7.67;3.70;;;;;;;24.24;100.00;100841.25;5073828;28;20168;-75
2021/05/28 08:23:30;;;;;;;6.67;3.77;;;;;;;24.34;100.00;100837.28;5073094;28;20406;-76
2021/05/28 08:25:56;;;;;;;7.10;3.33;;;;;;;24.31;100.00;100842.16;5073085;28;20769;-74
2021/05/28 08:28:21;;;;;;;5.13;3.10;;;;;;;24.35;100.00;100838.94;5071588;28;20411;-76
2021/05/28 08:30:50;;;;;;;3.73;2.47;;;;;;;24.35;100.00;100840.81;5077212;28;20271;-80
2021/05/28 08:33:16;;;;;;;4.30;3.10;;;;;;;24.35;100.00;100838.94;5078638;28;20221;-81
2021/05/28 08:35:43;;;;;;;5.03;3.03;;;;;;;24.34;100.00;100839.13;5075740;28;20482;-75
2021/05/28 08:38:10;;;;;;;4.50;2.73;;;;;;;24.28;100.00;100837.19;5074539;28;20395;-91
2021/05/28 08:40:36;;;;;;;6.50;3.50;;;;;;;24.19;100.00;100833.78;5071784;28;20461;-74
2021/05/28 08:43:03;;;;;;;4.80;2.93;;;;;;;24.26;100.00;100831.16;5070849;28;20422;-75
2021/05/28 08:45:41;;;;;;;6.00;3.07;;;;;;;24.30;100.00;100838.63;5071700;28;20391;-74
2021/05/28 08:48:10;;;;;;;4.00;2.80;;;;;;;24.27;100.00;100833.66;5071964;28;20772;-76
2021/05/28 08:50:37;;;;;;;4.07;2.30;;;;;;;24.18;100.00;100833.94;5072044;28;20493;-84
2021/05/28 08:53:09;;;;;;;4.60;3.00;;;;;;;24.31;100.00;100826.03;5074320;28;20399;-79
2021/05/28 08:55:36;;;;;;;4.57;3.13;;;;;;;24.44;100.00;100833.44;5074213;28;20394;-82
2021/05/28 08:58:17;;;;;;;4.90;3.30;;;;;;;24.50;100.00;100836.22;5077240;28;20432;-85
2021/05/28 09:00:45;;;;;;;5.70;3.17;;;;;;;24.64;100.00;100829.13;5075162;28;20391;-84
2021/05/28 09:03:19;;;;;;;6.57;3.40;;;;;;;24.76;100.00;100827.56;5071798;28;20956;-76
2021/05/28 09:05:46;;;;;;;7.63;3.67;;;;;;;24.88;100.00;100833.25;5072377;28;20516;-75
2021/05/28 09:08:11;;;;;;;4.77;3.00;;;;;;;24.95;100.00;100827.94;5071186;28;20411;-78
2021/05/28 09:10:39;;;;;;;4.10;3.10;;;;;;;25.10;100.00;100832.22;5073164;28;20443;-91
2021/05/28 09:13:25;;;;;;;13.00;4.17;;;;;;;25.07;100.00;100824.53;5072097;28;20218;-77
2021/05/28 09:16:06;;;;;;;5.93;3.60;;;;;;;24.83;100.00;100820.38;5071139;28;20785;-75
2021/05/28 09:19:00;;;;;;;10.93;3.20;;;;;;;24.86;100.00;100824.53;5071175;28;20383;-75
2021/05/28 09:21:30;;;;;;;5.07;3.20;;;;;;;25.06;100.00;100824.72;5072943;28;20452;-76
2021/05/28 09:23:57;;;;;;;8.40;3.73;;;;;;;25.05;100.00;100821.22;5073700;28;20383;-82
2021/05/28 09:26:29;;;;;;;4.80;3.10;;;;;;;25.09;100.00;100818.94;5071823;28;20706;-82
2021/05/28 09:28:55;;;;;;;6.47;3.60;;;;;;;25.05;100.00;100818.53;5071886;28;20395;-75
2021/05/28 09:31:23;;;;;;;5.70;2.93;;;;;;;25.12;100.00;100815.88;5072429;28;20952;-83
2021/05/28 09:33:54;;;;;;;4.87;3.87;;;;;;;25.20;100.00;100814.91;5072126;28;20433;-77
2021/05/28 09:36:36;;;;;;;5.00;3.10;;;;;;;25.39;100.00;100808.81;5071021;28;20406;-82
2021/05/28 09:39:10;;;;;;;5.00;3.20;;;;;;;25.72;100.00;100809.88;5070927;28;20395;-78
2021/05/28 09:41:41;;;;;;;6.90;3.60;;;;;;;25.96;100.00;100807.69;5070697;28;20532;-82
2021/05/28 09:44:22;;;;;;;5.83;3.40;;;;;;;26.19;100.00;100801.97;5070689;28;20414;-79
2021/05/28 09:46:56;;;;;;;5.83;3.60;;;;;;;26.11;100.00;100799.44;5056909;28;20437;-75
2021/05/28 09:49:24;;;;;;;5.00;3.07;;;;;;;26.19;100.00;100794.69;5049540;28;20427;-75
2021/05/28 09:52:18;;;;;;;7.00;3.67;;;;;;;26.48;100.00;100787.34;5050257;28;20455;-75
2021/05/28 09:55:07;;;;;;;5.37;4.03;;;;;;;26.90;100.00;100788.78;5050835;28;20791;-74
2021/05/28 09:57:38;;;;;;;7.40;3.87;;;;;;;27.30;100.00;100786.91;5051009;28;20523;-75
2021/05/28 10:00:17;;;;;;;6.80;3.37;;;;;;;27.42;100.00;100792.47;5050956;28;20894;-76
2021/05/28 10:02:43;;;;;;;7.50;3.53;;;;;;;27.37;100.00;100790.41;5051243;28;20483;-76
2021/05/28 10:05:10;;;;;;;6.17;3.33;;;;;;;27.52;100.00;100787.47;5050517;28;20419;-77
2021/05/28 10:07:39;;;;;;;7.87;4.53;;;;;;;27.60;100.00;100783.72;5050654;28;20400;-77
2021/05/28 10:10:05;;;;;;;4.83;3.23;;;;;;;27.85;100.00;100781.97;5049441;28;20475;-76
2021/05/28 10:12:31;;;;;;;4.50;3.07;;;;;;;28.05;100.00;100781.88;5061746;28;20947;-76
2021/05/28 10:14:57;;;;;;;5.50;3.40;;;;;;;28.28;100.00;100775.09;5055692;28;20423;-88
2021/05/28 10:17:28;;;;;;;6.40;3.10;;;;;;;28.28;100.00;100770.50;5067421;28;20199;-77
2021/05/28 10:19:53;;;;;;;7.30;4.10;;;;;;;28.41;100.00;100775.84;5073399;28;20278;-75
2021/05/28 10:22:22;;;;;;;7.37;2.87;;;;;;;28.67;100.00;100765.88;5073536;28;20395;-77
2021/05/28 10:24:48;;;;;;;6.50;3.87;;;;;;;28.51;100.00;100772.66;5074049;28;20239;-74
2021/05/28 10:27:24;;;;;;;5.37;3.00;;;;;;;28.21;100.00;100769.72;5073093;28;20402;-76
2021/05/28 10:29:54;;;;;;;8.40;4.90;;;;;;;27.56;100.00;100766.25;5059972;28;20465;-79
2021/05/28 10:32:21;;;;;;;5.43;3.30;;;;;;;27.76;100.00;100767.06;5054785;28;20499;-76
2021/05/28 10:35:09;;;;;;;7.30;3.60;;;;;;;27.89;100.00;100767.00;5059834;28;20410;-79
2021/05/28 10:37:36;;;;;;;3.93;2.90;;;;;;;28.00;100.00;100770.88;5054599;28;20499;-78
2021/05/28 10:40:03;;;;;;;7.67;3.20;;;;;;;28.07;100.00;100765.44;5053926;28;20889;-73
2021/05/28 10:42:29;;;;;;;8.67;3.43;;;;;;;28.16;100.00;100764.13;5072069;28;20418;-73
2021/05/28 10:44:54;;;;;;;9.97;3.60;;;;;;;28.29;99.91;100761.34;5073307;28;20489;-74
2021/05/28 10:47:21;;;;;;;8.80;6.03;;;;;;;28.10;100.00;100755.00;5063973;28;20291;-74
2021/05/28 10:49:52;;;;;;;5.87;4.17;;;;;;;28.37;94.98;100752.19;5052854;28;20168;-80
2021/05/28 10:52:31;;;;;;;6.63;3.43;;;;;;;28.45;95.48;100754.59;5053706;28;20408;-78
2021/05/28 10:54:58;;;;;;;4.50;3.30;;;;;;;28.60;97.90;100751.59;5054500;28;20403;-75
2021/05/28 10:57:32;;;;;;;4.67;3.50;;;;;;;28.47;95.63;100761.44;5054957;28;20426;-80
2021/05/28 11:00:00;;;;;;;7.53;3.50;;;;;;;28.34;96.58;100748.03;5055543;28;20435;-73
2021/05/28 11:02:55;;;;;;;10.70;7.43;;;;;;;28.26;98.54;100750.97;5055339;28;20404;-83
2021/05/28 11:05:50;;;;;;;68.63;43.73;;;;;;;28.23;100.00;100747.88;5053998;28;20474;-74
2021/05/28 11:08:36;;;;;;;24.97;20.00;;;;;;;28.13;100.00;100740.25;5061228;28;20472;-78
2021/05/28 11:11:02;;;;;;;49.73;36.37;;;;;;;28.19;100.00;100751.03;5071477;28;20553;-76